createdAt,value
2022-12-08T00:00:31.993Z,22.10
2022-12-08T00:01:32.528Z,22.70
2022-12-08T00:02:32.124Z,23.50
2022-12-08T00:03:32.147Z,23.10
2022-12-08T00:04:32.055Z,24.20
2022-12-08T00:05:31.947Z,22.90
2022-12-08T00:06:32.029Z,24.10
2022-12-08T00:07:31.913Z,23.70
2022-12-08T00:08:31.888Z,24.00
2022-12-08T00:09:37.891Z,24.20
2022-12-08T00:10:48.820Z,25.20
2022-12-08T00:11:34.532Z,25.00
2022-12-08T00:12:32.608Z,25.80
2022-12-08T00:13:31.874Z,25.90
2022-12-08T00:14:31.888Z,27.10
2022-12-08T00:15:31.821Z,27.00
2022-12-08T00:16:31.882Z,27.70
2022-12-08T00:17:31.812Z,27.10
2022-12-08T00:18:31.761Z,26.70
2022-12-08T00:19:32.759Z,28.40
2022-12-08T00:20:31.820Z,29.10
2022-12-08T00:21:31.865Z,30.70
2022-12-08T00:22:31.753Z,29.30
2022-12-08T00:23:31.723Z,28.90
2022-12-08T00:24:31.713Z,29.60
2022-12-08T00:25:31.717Z,28.70
2022-12-08T00:26:31.761Z,30.00
2022-12-08T00:27:31.688Z,30.60
2022-12-08T00:28:31.681Z,30.60
2022-12-08T00:29:31.653Z,30.50
2022-12-08T00:30:31.676Z,30.30
2022-12-08T00:31:31.709Z,31.00
2022-12-08T00:32:32.610Z,33.80
2022-12-08T00:33:31.616Z,33.10
2022-12-08T00:34:33.520Z,32.20
2022-12-08T00:35:31.613Z,31.60
2022-12-08T00:36:31.644Z,32.00
2022-12-08T00:37:31.589Z,33.40
2022-12-08T00:38:31.630Z,32.80
2022-12-08T00:39:31.549Z,33.50
2022-12-08T00:40:31.580Z,34.50
2022-12-08T00:41:31.575Z,34.00
2022-12-08T00:42:32.637Z,34.50
2022-12-08T00:43:31.559Z,33.90
2022-12-08T00:44:31.492Z,34.00
2022-12-08T00:45:32.530Z,34.20
2022-12-08T00:46:31.560Z,34.00
2022-12-08T00:47:32.663Z,34.80
2022-12-08T00:48:31.477Z,33.80
2022-12-08T00:49:31.466Z,33.00
2022-12-08T00:50:31.526Z,33.60
2022-12-08T00:51:31.577Z,34.10
2022-12-08T00:52:31.558Z,33.50
2022-12-08T00:53:31.454Z,34.50
2022-12-08T00:54:31.441Z,34.40
2022-12-08T00:55:31.393Z,32.60
2022-12-08T00:56:31.385Z,33.70
2022-12-08T00:57:31.421Z,34.50
2022-12-08T00:58:32.018Z,34.10
2022-12-08T00:59:32.091Z,34.60
2022-12-08T01:00:31.334Z,34.00
2022-12-08T01:01:31.370Z,33.70
2022-12-08T01:02:32.118Z,35.60
2022-12-08T01:03:31.474Z,35.00
2022-12-08T01:04:31.353Z,35.30
2022-12-08T01:05:31.328Z,33.40
2022-12-08T01:06:31.322Z,34.80
2022-12-08T01:07:31.995Z,32.50
2022-12-08T01:08:31.273Z,34.30
2022-12-08T01:09:31.256Z,35.80
2022-12-08T01:10:31.219Z,34.70
2022-12-08T01:11:31.247Z,33.40
2022-12-08T01:12:31.253Z,35.90
2022-12-08T01:13:31.238Z,34.70
2022-12-08T01:14:31.184Z,34.00
2022-12-08T01:15:31.190Z,35.70
2022-12-08T01:16:33.096Z,35.40
2022-12-08T01:17:31.157Z,35.50
2022-12-08T01:18:31.138Z,34.60
2022-12-08T01:19:31.195Z,34.20
2022-12-08T01:20:31.118Z,34.30
2022-12-08T01:21:31.195Z,35.80
2022-12-08T01:22:31.083Z,34.30
2022-12-08T01:23:32.520Z,33.80
2022-12-08T01:24:32.066Z,33.60
2022-12-08T01:25:31.591Z,33.90
2022-12-08T01:26:31.980Z,33.60
2022-12-08T01:27:31.115Z,34.40
2022-12-08T01:28:31.597Z,33.90
2022-12-08T01:29:31.043Z,34.60
2022-12-08T01:30:32.174Z,34.70
2022-12-08T01:31:31.580Z,35.60
2022-12-08T01:32:30.976Z,32.90
2022-12-08T01:33:31.008Z,34.00
2022-12-08T01:34:30.955Z,34.30
2022-12-08T01:35:31.080Z,34.00
2022-12-08T01:36:31.625Z,34.10
2022-12-08T01:37:32.008Z,32.80
2022-12-08T01:38:30.915Z,34.60
2022-12-08T01:39:30.896Z,34.30
2022-12-08T01:40:31.493Z,33.70
2022-12-08T01:41:30.885Z,34.60
2022-12-08T01:42:31.120Z,35.00
2022-12-08T01:43:30.864Z,35.50
2022-12-08T01:44:31.481Z,34.30
2022-12-08T01:45:30.862Z,35.10
2022-12-08T01:46:30.909Z,34.50
2022-12-08T01:47:30.898Z,33.90
2022-12-08T01:48:30.980Z,33.90
2022-12-08T01:49:30.811Z,33.10
2022-12-08T01:50:30.896Z,33.30
2022-12-08T01:51:30.804Z,33.20
2022-12-08T01:52:31.518Z,32.70
2022-12-08T01:53:31.592Z,32.80
2022-12-08T01:54:31.574Z,33.00
2022-12-08T01:55:30.794Z,31.80
2022-12-08T01:56:30.704Z,33.00
2022-12-08T01:57:31.594Z,32.50
2022-12-08T01:58:30.712Z,33.50
2022-12-08T01:59:31.486Z,33.00
2022-12-08T02:00:31.133Z,31.30
2022-12-08T02:01:30.904Z,32.30
2022-12-08T02:02:30.768Z,32.20
2022-12-08T02:03:30.665Z,31.10
2022-12-08T02:04:30.638Z,30.90
2022-12-08T02:05:30.609Z,31.50
2022-12-08T02:06:31.606Z,31.40
2022-12-08T02:07:31.086Z,30.00
2022-12-08T02:08:30.687Z,30.40
2022-12-08T02:09:30.553Z,30.90
2022-12-08T02:10:30.549Z,30.30
2022-12-08T02:11:30.546Z,29.20
2022-12-08T02:12:30.527Z,31.10
2022-12-08T02:13:31.482Z,29.60
2022-12-08T02:14:30.551Z,30.20
2022-12-08T02:15:30.602Z,30.40
2022-12-08T02:16:31.589Z,30.40
2022-12-08T02:17:30.493Z,30.30
2022-12-08T02:18:30.457Z,29.20
2022-12-08T02:19:31.659Z,30.40
2022-12-08T02:20:31.466Z,29.70
2022-12-08T02:21:30.434Z,30.00
2022-12-08T02:22:31.083Z,29.50
2022-12-08T02:23:30.422Z,28.80
2022-12-08T02:24:30.418Z,29.60
2022-12-08T02:25:30.391Z,28.30
2022-12-08T02:26:30.377Z,29.40
2022-12-08T02:27:30.451Z,28.80
2022-12-08T02:28:30.427Z,30.00
2022-12-08T02:29:30.358Z,28.80
2022-12-08T02:30:30.395Z,29.20
2022-12-08T02:31:30.512Z,28.70
2022-12-08T02:32:30.355Z,28.60
2022-12-08T02:33:31.059Z,28.40
2022-12-08T02:34:30.308Z,28.70
2022-12-08T02:35:30.299Z,27.40
2022-12-08T02:36:30.276Z,27.80
2022-12-08T02:37:30.270Z,27.50
2022-12-08T02:38:30.255Z,28.70
2022-12-08T02:39:30.255Z,29.30
2022-12-08T02:40:31.066Z,27.30
2022-12-08T02:41:30.278Z,27.00
2022-12-08T02:42:30.356Z,26.60
2022-12-08T02:43:30.211Z,26.00
2022-12-08T02:44:30.960Z,25.70
2022-12-08T02:45:30.207Z,24.80
2022-12-08T02:46:30.257Z,25.00
2022-12-08T02:47:30.168Z,25.10
2022-12-08T02:48:30.142Z,25.00
2022-12-08T02:49:30.144Z,25.00
2022-12-08T02:50:30.181Z,24.00
2022-12-08T02:51:30.115Z,24.00
2022-12-08T02:52:30.105Z,24.30
2022-12-08T02:53:30.112Z,24.40
2022-12-08T02:54:30.213Z,24.20
2022-12-08T02:55:30.120Z,23.50
2022-12-08T02:56:30.064Z,23.80
2022-12-08T02:57:30.050Z,24.10
2022-12-08T02:58:30.039Z,25.20
2022-12-08T02:59:30.304Z,24.30
2022-12-08T03:00:30.060Z,25.10
2022-12-08T03:01:30.683Z,24.70
2022-12-08T03:02:30.016Z,24.60
2022-12-08T03:03:29.989Z,24.60
2022-12-08T03:04:29.972Z,23.50
2022-12-08T03:05:29.987Z,23.60
2022-12-08T03:06:29.985Z,24.40
2022-12-08T03:07:30.549Z,24.00
2022-12-08T03:08:30.635Z,23.80
2022-12-08T03:09:30.548Z,22.50
2022-12-08T03:10:29.913Z,24.40
2022-12-08T03:11:29.905Z,23.80
2022-12-08T03:12:29.913Z,24.60
2022-12-08T03:13:29.911Z,24.50
2022-12-08T03:14:30.453Z,25.50
2022-12-08T03:15:29.884Z,24.40
2022-12-08T03:16:29.966Z,24.70
2022-12-08T03:17:30.484Z,24.00
2022-12-08T03:18:29.825Z,23.80
2022-12-08T03:19:29.831Z,24.40
2022-12-08T03:20:29.841Z,25.30
2022-12-08T03:21:29.788Z,25.40
2022-12-08T03:22:29.876Z,24.30
2022-12-08T03:23:30.481Z,24.20
2022-12-08T03:24:29.797Z,25.40
2022-12-08T03:25:29.769Z,24.30
2022-12-08T03:26:29.738Z,25.60
2022-12-08T03:27:29.784Z,26.00
2022-12-08T03:28:29.709Z,24.30
2022-12-08T03:29:30.533Z,24.70
2022-12-08T03:30:29.716Z,25.20
2022-12-08T03:31:29.790Z,25.70
2022-12-08T03:32:29.681Z,24.80
2022-12-08T03:33:30.458Z,24.90
2022-12-08T03:34:29.726Z,24.60
2022-12-08T03:35:31.055Z,26.10
2022-12-08T03:36:29.626Z,26.60
2022-12-08T03:37:29.760Z,23.60
2022-12-08T03:38:29.621Z,24.90
2022-12-08T03:39:29.629Z,24.80
2022-12-08T03:40:29.607Z,25.30
2022-12-08T03:41:29.606Z,25.20
2022-12-08T03:42:29.565Z,25.40
2022-12-08T03:43:29.709Z,24.50
2022-12-08T03:44:29.554Z,24.10
2022-12-08T03:45:30.457Z,23.90
2022-12-08T03:47:16.276Z,24.70
2022-12-08T03:48:18.048Z,24.40
2022-12-08T03:49:17.356Z,25.10
2022-12-08T03:50:17.441Z,25.00
2022-12-08T03:51:18.376Z,24.80
2022-12-08T03:52:17.325Z,24.80
2022-12-08T03:53:17.343Z,25.80
2022-12-08T03:54:18.052Z,24.60
2022-12-08T03:55:17.315Z,25.20
2022-12-08T03:56:17.307Z,24.70
2022-12-08T03:57:17.338Z,24.80
2022-12-08T03:58:17.278Z,24.40
2022-12-08T03:59:17.278Z,23.30
2022-12-08T04:00:18.211Z,24.50
2022-12-08T04:01:17.244Z,24.50
2022-12-08T04:02:18.259Z,23.80
2022-12-08T04:03:17.240Z,24.90
2022-12-08T04:04:18.135Z,24.40
2022-12-08T04:05:17.203Z,23.30
2022-12-08T04:06:17.330Z,23.40
2022-12-08T04:07:17.258Z,22.30
2022-12-08T04:08:17.240Z,23.10
2022-12-08T04:09:17.163Z,23.30
2022-12-08T04:10:17.146Z,23.50
2022-12-08T04:11:17.148Z,24.20
2022-12-08T04:12:17.131Z,24.00
2022-12-08T04:13:17.167Z,23.90
2022-12-08T04:14:17.260Z,24.60
2022-12-08T04:15:17.642Z,24.60
2022-12-08T04:16:17.198Z,24.10
2022-12-08T04:17:17.075Z,23.50
2022-12-08T04:18:17.075Z,24.20
2022-12-08T04:19:17.209Z,24.30
2022-12-08T04:20:17.427Z,24.30
2022-12-08T04:21:17.242Z,24.80
2022-12-08T04:22:17.063Z,25.00
2022-12-08T04:23:17.018Z,25.40
2022-12-08T04:24:17.655Z,24.30
2022-12-08T04:25:17.004Z,25.20
2022-12-08T04:26:17.081Z,24.80
2022-12-08T04:27:18.223Z,24.10
2022-12-08T04:28:16.947Z,23.80
2022-12-08T04:29:17.009Z,24.00
2022-12-08T04:30:16.943Z,24.20
2022-12-08T04:31:16.967Z,23.70
2022-12-08T04:32:16.995Z,24.60
2022-12-08T04:33:17.979Z,23.70
2022-12-08T04:34:16.913Z,24.20
2022-12-08T04:35:16.937Z,25.20
2022-12-08T04:36:17.544Z,25.00
2022-12-08T04:37:16.883Z,25.80
2022-12-08T04:38:17.029Z,25.00
2022-12-08T04:39:17.664Z,25.90
2022-12-08T04:40:16.808Z,25.50
2022-12-08T04:41:16.985Z,26.00
2022-12-08T04:42:16.819Z,26.70
2022-12-08T04:43:17.564Z,25.80
2022-12-08T04:44:16.777Z,25.20
2022-12-08T04:45:16.836Z,26.00
2022-12-08T04:46:16.835Z,25.70
2022-12-08T04:47:16.834Z,26.30
2022-12-08T04:48:16.769Z,27.20
2022-12-08T04:49:16.832Z,26.40
2022-12-08T04:50:16.727Z,27.20
2022-12-08T04:51:16.877Z,26.40
2022-12-08T04:52:16.709Z,25.40
2022-12-08T04:53:16.681Z,26.40
2022-12-08T04:54:17.652Z,26.40
2022-12-08T04:55:16.701Z,27.70
2022-12-08T04:56:16.669Z,26.90
2022-12-08T04:57:16.698Z,27.80
2022-12-08T04:58:16.631Z,27.50
2022-12-08T04:59:16.700Z,28.00
2022-12-08T05:00:16.644Z,27.40
2022-12-08T05:01:16.653Z,26.70
2022-12-08T05:02:16.725Z,27.00
2022-12-08T05:03:16.651Z,27.10
2022-12-08T05:04:17.531Z,27.10
2022-12-08T05:05:17.169Z,27.20
2022-12-08T05:06:16.540Z,27.10
2022-12-08T05:07:16.560Z,27.00
2022-12-08T05:08:16.661Z,27.30
2022-12-08T05:09:17.147Z,26.80
2022-12-08T05:10:17.044Z,26.60
2022-12-08T05:11:16.592Z,28.50
2022-12-08T05:12:16.744Z,29.50
2022-12-08T05:13:16.477Z,29.30
2022-12-08T05:14:16.492Z,28.80
2022-12-08T05:15:17.089Z,28.60
2022-12-08T05:16:16.527Z,28.40
2022-12-08T05:17:18.035Z,28.00
2022-12-08T05:18:17.496Z,28.90
2022-12-08T05:19:16.425Z,28.70
2022-12-08T05:20:16.667Z,29.70
2022-12-08T05:21:16.389Z,29.40
2022-12-08T05:22:16.388Z,29.20
2022-12-08T05:23:16.357Z,30.30
2022-12-08T05:24:16.367Z,29.60
2022-12-08T05:25:16.396Z,30.20
2022-12-08T05:26:16.339Z,30.80
2022-12-08T05:27:16.349Z,31.20
2022-12-08T05:28:40.127Z,30.20
2022-12-08T05:29:18.372Z,29.30
2022-12-08T05:30:16.297Z,30.70
2022-12-08T05:31:16.396Z,30.20
2022-12-08T05:32:16.302Z,30.20
2022-12-08T05:33:16.249Z,30.00
2022-12-08T05:34:16.241Z,30.90
2022-12-08T05:35:16.316Z,30.80
2022-12-08T05:36:16.234Z,30.60
2022-12-08T05:37:16.233Z,30.50
2022-12-08T05:38:17.162Z,30.60
2022-12-08T05:39:16.213Z,30.20
2022-12-08T05:40:16.217Z,29.90
2022-12-08T05:41:17.029Z,29.80
2022-12-08T05:42:20.493Z,30.90
2022-12-08T05:43:17.189Z,31.50
2022-12-08T05:44:16.213Z,31.20
2022-12-08T05:45:17.149Z,31.30
2022-12-08T05:46:16.301Z,30.50
2022-12-08T05:47:16.195Z,29.60
2022-12-08T05:48:16.398Z,30.50
2022-12-08T05:49:16.097Z,30.30
2022-12-08T05:50:16.150Z,30.10
2022-12-08T05:51:16.214Z,29.30
2022-12-08T05:52:17.018Z,30.90
2022-12-08T05:53:16.044Z,31.10
2022-12-08T05:54:16.041Z,28.20
2022-12-08T05:55:16.017Z,29.00
2022-12-08T05:56:17.088Z,28.40
2022-12-08T05:57:16.270Z,30.50
2022-12-08T05:58:15.998Z,29.20
2022-12-08T05:59:15.991Z,29.60
2022-12-08T06:00:15.958Z,29.40
2022-12-08T06:01:16.535Z,28.90
2022-12-08T06:02:17.048Z,28.30
2022-12-08T06:03:16.074Z,28.90
2022-12-08T06:04:15.933Z,29.00
2022-12-08T06:05:15.907Z,30.40
2022-12-08T06:06:15.890Z,30.30
2022-12-08T06:07:16.610Z,27.10
2022-12-08T06:08:16.726Z,26.70
2022-12-08T06:09:15.881Z,28.00
2022-12-08T06:10:16.778Z,30.00
2022-12-08T06:11:15.842Z,29.00
2022-12-08T06:12:16.434Z,29.00
2022-12-08T06:13:15.855Z,28.30
2022-12-08T06:14:16.594Z,29.40
2022-12-08T06:15:15.881Z,29.00
2022-12-08T06:16:15.917Z,27.80
2022-12-08T06:17:15.844Z,28.40
2022-12-08T06:18:16.551Z,26.50
2022-12-08T06:19:16.618Z,27.30
2022-12-08T06:20:15.771Z,26.20
2022-12-08T06:21:15.852Z,26.40
2022-12-08T06:22:15.766Z,27.00
2022-12-08T06:23:15.748Z,26.90
2022-12-08T06:24:15.721Z,26.40
2022-12-08T06:25:15.694Z,24.70
2022-12-08T06:26:16.651Z,25.60
2022-12-08T06:27:15.751Z,24.60
2022-12-08T06:28:15.683Z,25.80
2022-12-08T06:29:15.656Z,24.80
2022-12-08T06:30:48.056Z,25.00
2022-12-08T06:31:15.624Z,25.20
2022-12-08T06:32:15.770Z,24.40
2022-12-08T06:33:15.618Z,26.00
2022-12-08T06:34:15.587Z,24.40
2022-12-08T06:35:15.595Z,24.50
2022-12-08T06:36:15.559Z,22.50
2022-12-08T06:37:15.583Z,23.50
2022-12-08T06:38:15.579Z,23.60
2022-12-08T06:39:15.708Z,23.70
2022-12-08T06:40:15.519Z,23.00
2022-12-08T06:41:15.522Z,22.10
2022-12-08T06:42:15.650Z,22.40
2022-12-08T06:43:15.508Z,22.10
2022-12-08T06:44:15.517Z,22.50
2022-12-08T06:45:15.477Z,22.20
2022-12-08T06:46:15.546Z,21.50
2022-12-08T06:47:15.445Z,22.30
2022-12-08T06:48:15.460Z,22.30
2022-12-08T06:49:15.413Z,22.30
2022-12-08T06:50:15.444Z,22.60
2022-12-08T06:51:15.468Z,21.30
2022-12-08T06:52:15.444Z,22.60
2022-12-08T06:53:15.395Z,21.70
2022-12-08T06:54:15.387Z,20.80
2022-12-08T06:55:35.344Z,20.80
2022-12-08T06:56:17.386Z,21.20
2022-12-08T06:57:15.341Z,21.40
2022-12-08T06:58:15.338Z,21.30
2022-12-08T06:59:15.344Z,20.60
2022-12-08T07:00:15.315Z,20.00
2022-12-08T07:01:15.349Z,20.70
2022-12-08T07:02:15.422Z,19.70
2022-12-08T07:03:15.339Z,20.50
2022-12-08T07:04:15.265Z,20.60
2022-12-08T07:05:15.273Z,20.20
2022-12-08T07:06:15.274Z,20.10
2022-12-08T07:07:15.238Z,20.20
2022-12-08T07:08:15.354Z,21.20
2022-12-08T07:09:15.325Z,20.00
2022-12-08T07:10:15.322Z,20.70
2022-12-08T07:11:20.923Z,20.90
2022-12-08T07:12:17.207Z,20.90
2022-12-08T07:13:15.167Z,20.40
2022-12-08T07:14:15.197Z,20.00
2022-12-08T07:15:15.177Z,20.40
2022-12-08T07:16:15.274Z,21.20
2022-12-08T07:17:15.180Z,19.60
2022-12-08T07:18:15.119Z,18.70
2022-12-08T07:19:15.175Z,19.20
2022-12-08T07:20:15.113Z,20.00
2022-12-08T07:21:15.113Z,19.80
2022-12-08T07:22:15.116Z,20.00
2022-12-08T07:23:15.086Z,19.40
2022-12-08T07:24:15.110Z,19.40
2022-12-08T07:25:15.055Z,19.70
2022-12-08T07:26:15.059Z,20.60
2022-12-08T07:27:16.106Z,19.50
2022-12-08T07:28:15.103Z,19.30
2022-12-08T07:29:14.991Z,20.60
2022-12-08T07:30:15.047Z,19.80
2022-12-08T07:31:15.077Z,20.40
2022-12-08T07:32:14.975Z,19.50
2022-12-08T07:33:15.008Z,20.30
2022-12-08T07:34:14.934Z,19.30
2022-12-08T07:35:14.971Z,20.00
2022-12-08T07:36:14.930Z,19.70
2022-12-08T07:37:14.939Z,19.30
2022-12-08T07:38:14.892Z,19.40
2022-12-08T07:39:14.888Z,19.70
2022-12-08T07:40:14.887Z,19.50
2022-12-08T07:41:14.955Z,20.10
2022-12-08T07:42:14.840Z,19.70
2022-12-08T07:43:14.857Z,17.60
2022-12-08T07:44:14.837Z,18.20
2022-12-08T07:45:14.826Z,18.40
2022-12-08T07:46:14.836Z,17.70
2022-12-08T07:47:14.863Z,20.30
2022-12-08T07:48:14.792Z,19.00
2022-12-08T07:49:14.780Z,18.70
2022-12-08T07:50:14.770Z,18.60
2022-12-08T07:51:14.812Z,18.30
2022-12-08T07:52:14.782Z,17.60
2022-12-08T07:53:14.762Z,18.00
2022-12-08T07:54:14.737Z,16.80
2022-12-08T07:55:14.696Z,17.00
2022-12-08T07:56:15.704Z,17.60
2022-12-08T07:57:14.680Z,16.90
2022-12-08T07:58:14.712Z,16.60
2022-12-08T07:59:14.701Z,16.90
2022-12-08T08:00:15.205Z,16.50
2022-12-08T08:01:14.822Z,16.50
2022-12-08T08:02:24.086Z,16.00
2022-12-08T08:03:16.694Z,15.70
2022-12-08T08:04:14.685Z,16.40
2022-12-08T08:05:14.660Z,15.80
2022-12-08T08:06:14.624Z,15.50
2022-12-08T08:07:14.605Z,15.70
2022-12-08T08:08:14.608Z,15.70
2022-12-08T08:09:14.573Z,15.60
2022-12-08T08:10:14.833Z,16.10
2022-12-08T08:11:20.824Z,15.70
2022-12-08T08:12:32.784Z,14.90
2022-12-08T08:13:16.531Z,15.00
2022-12-08T08:14:14.517Z,15.50
2022-12-08T08:15:15.092Z,15.00
2022-12-08T08:16:14.610Z,14.60
2022-12-08T08:17:14.561Z,15.60
2022-12-08T08:18:14.486Z,15.70
2022-12-08T08:19:14.508Z,15.30
2022-12-08T08:20:14.517Z,15.10
2022-12-08T08:21:45.101Z,14.80
2022-12-08T08:22:16.453Z,14.30
2022-12-08T08:23:14.422Z,14.40
2022-12-08T08:24:14.417Z,14.10
2022-12-08T08:25:14.470Z,13.50
2022-12-08T08:26:14.435Z,14.30
2022-12-08T08:27:14.393Z,13.90
2022-12-08T08:28:15.158Z,13.80
2022-12-08T08:29:14.390Z,14.20
2022-12-08T08:30:20.067Z,13.90
2022-12-08T08:31:16.389Z,14.30
2022-12-08T08:32:14.331Z,13.50
2022-12-08T08:33:14.346Z,13.40
2022-12-08T08:34:14.551Z,13.90
2022-12-08T08:35:14.282Z,13.80
2022-12-08T08:36:14.318Z,13.70
2022-12-08T08:37:14.307Z,13.50
2022-12-08T08:38:14.328Z,13.70
2022-12-08T08:39:14.319Z,13.40
2022-12-08T08:40:14.412Z,12.50
2022-12-08T08:41:14.263Z,13.80
2022-12-08T08:42:14.279Z,13.50
2022-12-08T08:43:14.217Z,13.30
2022-12-08T08:44:14.268Z,12.80
2022-12-08T08:45:14.193Z,13.80
2022-12-08T08:46:14.243Z,13.70
2022-12-08T08:47:14.191Z,13.10
2022-12-08T08:48:14.179Z,12.80
2022-12-08T08:49:14.170Z,12.70
2022-12-08T08:50:14.151Z,13.20
2022-12-08T08:51:14.152Z,13.00
2022-12-08T08:52:14.116Z,12.30
2022-12-08T08:53:14.159Z,12.80
2022-12-08T08:54:14.090Z,12.30
2022-12-08T08:55:14.088Z,13.30
2022-12-08T08:56:14.080Z,11.20
2022-12-08T08:57:14.063Z,12.10
2022-12-08T08:58:14.064Z,12.50
2022-12-08T08:59:15.090Z,12.70
2022-12-08T09:00:14.048Z,12.70
2022-12-08T09:01:14.061Z,13.30
2022-12-08T09:02:14.108Z,13.60
2022-12-08T09:03:14.059Z,13.30
2022-12-08T09:04:14.695Z,13.20
2022-12-08T09:05:14.068Z,12.70
2022-12-08T09:06:14.700Z,13.30
2022-12-08T09:07:14.606Z,12.40
2022-12-08T09:08:14.047Z,13.30
2022-12-08T09:09:13.989Z,13.20
2022-12-08T09:10:14.020Z,12.30
2022-12-08T09:11:14.079Z,13.00
2022-12-08T09:12:13.937Z,12.70
2022-12-08T09:13:13.881Z,12.30
2022-12-08T09:14:13.929Z,13.10
2022-12-08T09:15:13.886Z,12.60
2022-12-08T09:16:13.925Z,12.80
2022-12-08T09:17:13.949Z,12.30
2022-12-08T09:18:14.604Z,12.60
2022-12-08T09:19:13.832Z,13.00
2022-12-08T09:20:13.878Z,13.00
2022-12-08T09:21:13.789Z,13.20
2022-12-08T09:22:13.817Z,13.10
2022-12-08T09:23:13.807Z,13.60
2022-12-08T09:24:13.789Z,13.50
2022-12-08T09:25:13.790Z,13.60
2022-12-08T09:26:13.736Z,13.30
2022-12-08T09:27:13.766Z,12.80
2022-12-08T09:28:13.781Z,13.30
2022-12-08T09:29:13.775Z,13.90
2022-12-08T09:30:13.719Z,13.30
2022-12-08T09:31:13.784Z,13.00
2022-12-08T09:32:13.750Z,12.80
2022-12-08T09:33:13.742Z,13.70
2022-12-08T09:34:13.698Z,13.80
2022-12-08T09:35:14.628Z,12.70
2022-12-08T09:36:13.629Z,12.80
2022-12-08T09:37:13.641Z,13.60
2022-12-08T09:38:13.650Z,13.70
2022-12-08T09:39:13.618Z,13.50
2022-12-08T09:40:13.602Z,13.80
2022-12-08T09:41:13.667Z,12.60
2022-12-08T09:42:14.605Z,13.50
2022-12-08T09:43:13.663Z,12.40
2022-12-08T09:44:13.653Z,13.20
2022-12-08T09:45:13.577Z,13.80
2022-12-08T09:46:13.561Z,13.20
2022-12-08T09:47:13.847Z,12.70
2022-12-08T09:48:13.577Z,13.10
2022-12-08T09:49:13.548Z,12.50
2022-12-08T09:50:13.491Z,12.50
2022-12-08T09:51:13.532Z,12.20
2022-12-08T09:52:13.466Z,13.10
2022-12-08T09:53:13.519Z,12.70
2022-12-08T09:54:13.448Z,13.50
2022-12-08T09:55:13.446Z,13.30
2022-12-08T09:56:13.475Z,13.10
2022-12-08T09:57:13.429Z,13.30
2022-12-08T09:58:13.395Z,13.70
2022-12-08T09:59:13.398Z,13.70
2022-12-08T10:00:13.415Z,13.50
2022-12-08T10:01:13.399Z,13.40
2022-12-08T10:02:13.433Z,12.80
2022-12-08T10:03:16.702Z,11.80
2022-12-08T10:04:14.345Z,12.10
2022-12-08T10:05:13.430Z,12.20
2022-12-08T10:06:13.329Z,12.50
2022-12-08T10:07:13.294Z,13.10
2022-12-08T10:08:13.442Z,12.40
2022-12-08T10:09:17.166Z,13.00
2022-12-08T10:10:14.316Z,12.40
2022-12-08T10:11:13.269Z,12.10
2022-12-08T10:12:13.403Z,12.40
2022-12-08T10:13:13.305Z,12.30
2022-12-08T10:14:13.234Z,12.70
2022-12-08T10:15:13.243Z,11.70
2022-12-08T10:16:21.195Z,12.50
2022-12-08T10:17:14.296Z,12.90
2022-12-08T10:18:13.183Z,12.10
2022-12-08T10:19:13.173Z,12.50
2022-12-08T10:20:13.189Z,13.30
2022-12-08T10:21:13.221Z,12.00
2022-12-08T10:22:13.151Z,12.30
2022-12-08T10:23:13.139Z,13.00
2022-12-08T10:24:13.132Z,12.60
2022-12-08T10:25:13.172Z,12.70
2022-12-08T10:26:13.129Z,12.60
2022-12-08T10:27:13.106Z,12.80
2022-12-08T10:28:13.125Z,12.10
2022-12-08T10:29:13.097Z,12.20
2022-12-08T10:30:13.324Z,12.10
2022-12-08T10:31:13.085Z,12.40
2022-12-08T10:32:13.070Z,11.90
2022-12-08T10:33:13.027Z,12.40
2022-12-08T10:34:13.029Z,12.60
2022-12-08T10:35:13.036Z,12.10
2022-12-08T10:36:13.028Z,12.70
2022-12-08T10:37:13.017Z,12.20
2022-12-08T10:38:13.013Z,12.00
2022-12-08T10:39:12.973Z,12.20
2022-12-08T10:40:12.962Z,11.90
2022-12-08T10:41:12.972Z,12.20
2022-12-08T10:42:12.973Z,12.40
2022-12-08T10:43:12.991Z,12.40
2022-12-08T10:44:13.033Z,11.90
2022-12-08T10:45:12.905Z,11.50
2022-12-08T10:46:13.040Z,11.20
2022-12-08T10:47:12.970Z,12.40
2022-12-08T10:48:13.010Z,11.60
2022-12-08T10:49:12.895Z,11.00
2022-12-08T10:50:12.873Z,11.70
2022-12-08T10:51:12.861Z,10.90
2022-12-08T10:52:12.823Z,11.10
2022-12-08T10:53:12.824Z,10.50
2022-12-08T10:54:13.756Z,11.10
2022-12-08T10:55:12.844Z,11.40
2022-12-08T10:56:12.781Z,10.80
2022-12-08T10:57:12.811Z,11.00
2022-12-08T10:58:12.759Z,11.50
2022-12-08T10:59:12.792Z,10.60
2022-12-08T11:00:14.423Z,10.40
2022-12-08T11:01:14.776Z,10.50
2022-12-08T11:02:12.877Z,10.00
2022-12-08T11:03:12.727Z,10.70
2022-12-08T11:04:12.697Z,10.90
2022-12-08T11:05:12.702Z,9.70
2022-12-08T11:06:12.685Z,11.00
2022-12-08T11:07:12.683Z,10.50
2022-12-08T11:08:12.743Z,10.70
2022-12-08T11:09:12.707Z,9.90
2022-12-08T11:10:12.626Z,9.90
2022-12-08T11:11:12.668Z,9.60
2022-12-08T11:12:12.639Z,9.80
2022-12-08T11:13:12.728Z,9.50
2022-12-08T11:14:12.664Z,9.90
2022-12-08T11:15:12.627Z,10.30
2022-12-08T11:16:12.610Z,9.70
2022-12-08T11:17:12.553Z,10.00
2022-12-08T11:18:12.540Z,9.40
2022-12-08T11:19:12.589Z,9.80
2022-12-08T11:20:12.562Z,9.10
2022-12-08T11:21:12.602Z,8.10
2022-12-08T11:22:12.560Z,9.00
2022-12-08T11:23:12.571Z,9.00
2022-12-08T11:24:13.092Z,8.00
2022-12-08T11:25:12.501Z,7.90
2022-12-08T11:26:12.511Z,8.30
2022-12-08T11:27:12.467Z,8.50
2022-12-08T11:28:12.434Z,7.60
2022-12-08T11:29:12.443Z,7.90
2022-12-08T11:30:14.567Z,7.40
2022-12-08T11:31:13.473Z,7.30
2022-12-08T11:32:12.484Z,8.30
2022-12-08T11:33:12.402Z,7.10
2022-12-08T11:34:12.410Z,7.50
2022-12-08T11:35:12.383Z,8.00
2022-12-08T11:36:12.351Z,8.00
2022-12-08T11:37:12.395Z,7.60
2022-12-08T11:38:21.448Z,7.80
2022-12-08T11:39:14.399Z,7.70
2022-12-08T11:40:12.346Z,7.10
2022-12-08T11:41:16.030Z,7.80
2022-12-08T11:42:12.329Z,7.00
2022-12-08T11:43:12.356Z,7.30
2022-12-08T11:44:12.370Z,7.60
2022-12-08T11:45:12.319Z,7.00
2022-12-08T11:46:12.308Z,7.20
2022-12-08T11:47:12.256Z,6.90
2022-12-08T11:48:12.248Z,6.50
2022-12-08T11:49:12.275Z,6.40
2022-12-08T11:50:16.611Z,4.80
2022-12-08T11:51:13.247Z,5.20
2022-12-08T11:52:12.211Z,5.60
2022-12-08T11:53:12.211Z,5.50
2022-12-08T11:54:12.180Z,5.50
2022-12-08T11:55:13.152Z,4.90
2022-12-08T11:56:12.154Z,4.10
2022-12-08T11:57:12.157Z,3.50
2022-12-08T11:58:12.194Z,4.00
2022-12-08T11:59:12.128Z,3.70
2022-12-08T12:00:13.108Z,3.70
2022-12-08T12:01:12.125Z,3.60
2022-12-08T12:02:12.140Z,3.20
2022-12-08T12:03:44.528Z,3.90
2022-12-08T12:04:12.075Z,3.60
2022-12-08T12:05:12.073Z,2.90
2022-12-08T12:06:30.435Z,3.10
2022-12-08T12:07:14.119Z,3.20
2022-12-08T12:08:12.149Z,2.90
2022-12-08T12:09:12.040Z,3.10
2022-12-08T12:10:12.006Z,2.90
2022-12-08T12:11:13.645Z,3.00
2022-12-08T12:12:12.119Z,2.80
2022-12-08T12:13:12.620Z,3.10
2022-12-08T12:14:12.044Z,3.40
2022-12-08T12:15:11.968Z,2.90
2022-12-08T12:16:12.019Z,3.20
2022-12-08T12:17:12.573Z,2.90
2022-12-08T12:18:16.521Z,2.90
2022-12-08T12:19:13.068Z,3.00
2022-12-08T12:20:12.537Z,2.80
2022-12-08T12:21:11.903Z,2.60
2022-12-08T12:22:12.021Z,2.50
2022-12-08T12:23:12.997Z,2.60
2022-12-08T12:24:13.522Z,2.80
2022-12-08T12:25:12.522Z,2.80
2022-12-08T12:26:11.924Z,2.80
2022-12-08T12:27:12.550Z,2.70
2022-12-08T12:28:11.836Z,2.90
2022-12-08T12:29:11.962Z,2.90
2022-12-08T12:30:11.861Z,2.60
2022-12-08T12:31:11.953Z,2.70
2022-12-08T12:32:12.485Z,2.70
2022-12-08T12:33:11.801Z,2.80
2022-12-08T12:34:15.519Z,2.90
2022-12-08T12:35:12.510Z,3.10
2022-12-08T12:36:12.914Z,3.30
2022-12-08T12:37:11.772Z,3.60
2022-12-08T12:38:12.602Z,3.70
2022-12-08T12:39:11.759Z,3.50
2022-12-08T12:40:13.560Z,4.20
2022-12-08T12:41:11.743Z,5.40
2022-12-08T12:42:12.718Z,5.00
2022-12-08T12:43:14.441Z,4.50
2022-12-08T12:44:11.693Z,3.30
2022-12-08T12:45:12.985Z,4.10
2022-12-08T12:46:13.527Z,2.50
2022-12-08T12:47:12.595Z,2.30
2022-12-08T12:48:11.654Z,2.50
2022-12-08T12:49:12.155Z,2.10
2022-12-08T12:50:43.550Z,1.80
2022-12-08T12:51:11.614Z,1.70
2022-12-08T12:52:12.107Z,1.70
2022-12-08T12:53:13.960Z,1.80
2022-12-08T12:54:12.578Z,2.10
2022-12-08T12:55:11.543Z,2.00
2022-12-08T12:56:11.639Z,1.90
2022-12-08T12:57:12.517Z,2.00